createdAt,value
2019-04-21T00:03:18.138Z,7.82
2019-04-21T00:06:48.204Z,7.85
2019-04-21T00:10:06.312Z,7.86
2019-04-21T00:13:12.372Z,7.85
2019-04-21T00:16:17.183Z,7.84
2019-04-21T00:19:35.701Z,7.83
2019-04-21T00:23:09.470Z,7.84
2019-04-21T00:26:25.373Z,7.72
2019-04-21T00:29:51.792Z,7.74
2019-04-21T00:32:50.266Z,7.74
2019-04-21T00:35:59.839Z,7.77
2019-04-21T00:39:36.143Z,7.65
2019-04-21T00:42:43.209Z,7.54
2019-04-21T00:45:51.802Z,7.41
2019-04-21T00:49:10.540Z,7.32
2019-04-21T00:56:04.539Z,7.28
2019-04-21T00:59:16.388Z,7.25
2019-04-21T01:02:29.715Z,7.27
2019-04-21T01:05:49.821Z,7.26
2019-04-21T01:08:59.439Z,7.25
2019-04-21T01:12:19.356Z,7.22
2019-04-21T01:15:38.535Z,7.15
2019-04-21T01:18:51.929Z,7.25
2019-04-21T01:21:42.656Z,7.23
2019-04-21T01:25:04.546Z,7.22
2019-04-21T01:28:32.816Z,7.15
2019-04-21T01:31:41.630Z,7.08
2019-04-21T01:35:02.665Z,7.08
2019-04-21T01:38:27.315Z,6.94
2019-04-21T01:41:41.301Z,6.86
2019-04-21T01:44:56.407Z,6.77
2019-04-21T01:48:03.583Z,6.69
2019-04-21T01:51:18.733Z,6.73
2019-04-21T01:55:00.390Z,6.72
2019-04-21T01:58:11.532Z,6.64
2019-04-21T02:01:34.608Z,6.63
2019-04-21T02:04:55.793Z,6.66
2019-04-21T02:08:01.072Z,6.77
2019-04-21T02:11:23.114Z,6.74
2019-04-21T02:14:41.043Z,6.62
2019-04-21T02:17:53.736Z,6.56
2019-04-21T02:20:52.872Z,6.48
2019-04-21T02:24:31.265Z,6.36
2019-04-21T02:27:36.465Z,6.41
2019-04-21T02:31:18.673Z,6.34
2019-04-21T02:34:13.402Z,6.32
2019-04-21T02:37:44.858Z,6.17
2019-04-21T02:40:51.506Z,6.13
2019-04-21T02:47:27.384Z,6.00
2019-04-21T02:54:24.624Z,5.91
2019-04-21T02:57:09.606Z,5.97
2019-04-21T03:03:55.007Z,6.02
2019-04-21T03:07:24.346Z,6.00
2019-04-21T03:13:57.241Z,5.79
2019-04-21T03:20:44.461Z,5.79
2019-04-21T03:24:15.296Z,5.60
2019-04-21T03:27:17.198Z,5.50
2019-04-21T03:30:42.245Z,5.49
2019-04-21T03:37:16.912Z,5.48
2019-04-21T03:43:29.970Z,5.54
2019-04-21T03:50:04.623Z,5.31
2019-04-21T04:00:31.847Z,5.32
2019-04-21T04:06:56.569Z,5.08
2019-04-21T04:10:08.405Z,5.04
2019-04-21T04:13:26.549Z,5.02
2019-04-21T04:16:42.580Z,5.02
2019-04-21T04:23:09.804Z,5.02
2019-04-21T04:26:31.617Z,4.96
2019-04-21T04:29:39.666Z,4.94
2019-04-21T04:32:46.839Z,5.00
2019-04-21T04:39:48.687Z,4.87
2019-04-21T04:43:11.930Z,4.88
2019-04-21T04:46:17.734Z,4.94
2019-04-21T04:49:43.498Z,4.96
2019-04-21T04:59:32.556Z,5.10
2019-04-21T05:02:40.251Z,5.15
2019-04-21T05:09:39.370Z,5.18
2019-04-21T05:23:25.701Z,5.24
2019-04-21T05:26:32.970Z,5.12
2019-04-21T05:29:58.651Z,5.21
2019-04-21T05:33:36.102Z,5.19
2019-04-21T05:37:15.467Z,5.30
2019-04-21T05:40:28.737Z,5.39
2019-04-21T05:43:54.528Z,5.46
2019-04-21T05:47:14.184Z,5.57
2019-04-21T05:50:19.102Z,5.66
2019-04-21T05:53:39.399Z,5.79
2019-04-21T05:56:51.028Z,5.94
2019-04-21T06:00:09.914Z,5.99
2019-04-21T06:03:23.134Z,6.10
2019-04-21T06:06:39.654Z,6.29
2019-04-21T06:10:07.233Z,6.43
2019-04-21T06:13:19.906Z,6.62
2019-04-21T06:16:28.710Z,6.76
2019-04-21T06:23:00.232Z,7.07
2019-04-21T06:29:29.831Z,7.53
2019-04-21T06:36:39.019Z,7.96
2019-04-21T06:39:54.194Z,8.16
2019-04-21T06:43:08.166Z,8.36
2019-04-21T06:46:17.137Z,8.62
2019-04-21T06:49:28.093Z,8.88
2019-04-21T06:52:51.945Z,9.12
2019-04-21T06:55:59.983Z,9.36
2019-04-21T06:59:09.711Z,9.60
2019-04-21T07:05:48.756Z,10.24
2019-04-21T07:09:13.975Z,10.61
2019-04-21T07:12:05.766Z,11.01
2019-04-21T07:15:30.551Z,11.43
2019-04-21T07:18:58.630Z,11.89
2019-04-21T07:22:03.096Z,12.32
2019-04-21T07:25:28.169Z,12.67
2019-04-21T07:28:31.753Z,12.97
2019-04-21T07:31:55.539Z,13.26
2019-04-21T07:35:03.895Z,13.56
2019-04-21T07:38:16.546Z,13.77
2019-04-21T07:41:24.982Z,14.02
2019-04-21T07:44:39.466Z,14.23
2019-04-21T07:48:08.335Z,14.49
2019-04-21T07:51:51.538Z,14.76
2019-04-21T07:58:20.982Z,15.17
2019-04-21T08:01:36.967Z,15.31
2019-04-21T08:08:01.573Z,15.69
2019-04-21T08:11:20.813Z,15.89
2019-04-21T08:15:03.204Z,16.18
2019-04-21T08:17:54.713Z,16.45
2019-04-21T08:21:05.886Z,16.73
2019-04-21T08:24:27.499Z,16.98
2019-04-21T08:27:47.747Z,17.26
2019-04-21T08:30:54.228Z,17.45
2019-04-21T08:34:14.130Z,17.69
2019-04-21T08:37:24.151Z,17.99
2019-04-21T08:40:40.870Z,18.16
2019-04-21T08:43:58.979Z,18.36
2019-04-21T08:47:12.583Z,18.57
2019-04-21T08:50:28.026Z,18.67
2019-04-21T08:53:57.102Z,18.84
2019-04-21T08:57:24.247Z,18.99
2019-04-21T09:00:51.168Z,19.26
2019-04-21T09:04:18.694Z,19.61
2019-04-21T09:07:25.859Z,19.78
2019-04-21T09:10:35.471Z,19.94
2019-04-21T09:13:48.934Z,20.10
2019-04-21T09:17:01.682Z,20.36
2019-04-21T09:20:42.757Z,20.48
2019-04-21T09:23:32.912Z,20.42
2019-04-21T09:26:54.217Z,20.54
2019-04-21T09:29:54.053Z,20.90
2019-04-21T09:33:05.549Z,20.94
2019-04-21T09:36:22.054Z,21.32
2019-04-21T09:39:41.836Z,21.55
2019-04-21T09:42:56.820Z,21.62
2019-04-21T09:46:06.170Z,21.76
2019-04-21T09:49:23.970Z,22.27
2019-04-21T09:52:41.733Z,22.35
2019-04-21T09:55:56.712Z,22.32
2019-04-21T09:59:14.843Z,22.91
2019-04-21T10:02:36.568Z,23.25
2019-04-21T10:05:38.063Z,23.54
2019-04-21T10:09:00.947Z,24.03
2019-04-21T10:12:07.587Z,23.79
2019-04-21T10:15:23.640Z,23.85
2019-04-21T10:18:36.518Z,24.34
2019-04-21T10:21:52.028Z,24.49
2019-04-21T10:25:06.736Z,24.92
2019-04-21T10:28:21.155Z,24.92
2019-04-21T10:31:36.800Z,24.92
2019-04-21T10:34:50.301Z,25.30
2019-04-21T10:38:17.027Z,25.65
2019-04-21T10:41:19.358Z,26.11
2019-04-21T10:44:32.780Z,25.63
2019-04-21T10:47:47.207Z,25.48
2019-04-21T10:51:01.100Z,25.09
2019-04-21T10:54:15.841Z,24.87
2019-04-21T10:57:30.575Z,24.91
2019-04-21T11:00:46.113Z,25.47
2019-04-21T11:04:19.958Z,25.75
2019-04-21T11:08:03.703Z,26.24
2019-04-21T11:11:03.839Z,26.59
2019-04-21T11:14:17.893Z,27.03
2019-04-21T11:17:32.331Z,27.03
2019-04-21T11:20:46.914Z,27.13
2019-04-21T11:24:01.736Z,27.31
2019-04-21T11:27:16.986Z,27.05
2019-04-21T11:30:31.724Z,26.99
2019-04-21T11:33:45.485Z,26.47
2019-04-21T11:36:59.155Z,26.61
2019-04-21T11:40:16.726Z,27.22
2019-04-21T11:43:28.904Z,27.56
2019-04-21T11:46:42.699Z,27.79
2019-04-21T11:49:57.066Z,27.75
2019-04-21T11:53:10.946Z,28.15
2019-04-21T11:56:25.167Z,28.58
2019-04-21T11:59:39.651Z,28.73
2019-04-21T12:02:53.440Z,28.53
2019-04-21T12:06:06.895Z,28.96
2019-04-21T12:09:21.003Z,29.65
2019-04-21T12:16:30.829Z,28.42
2019-04-21T12:19:44.774Z,28.85
2019-04-21T12:23:00.398Z,28.92
2019-04-21T12:26:14.110Z,28.73
2019-04-21T12:29:29.040Z,28.98
2019-04-21T12:32:56.263Z,29.00
2019-04-21T12:36:09.843Z,29.23
2019-04-21T12:39:24.980Z,29.29
2019-04-21T12:42:40.391Z,28.93
2019-04-21T12:45:54.138Z,29.45
2019-04-21T12:49:08.090Z,29.55
2019-04-21T12:52:21.887Z,30.05
2019-04-21T12:55:40.318Z,30.19
2019-04-21T12:58:51.369Z,30.05
2019-04-21T13:02:05.081Z,29.31
2019-04-21T13:05:19.956Z,28.87
2019-04-21T13:08:45.656Z,29.16
2019-04-21T13:11:49.257Z,29.05
2019-04-21T13:15:04.275Z,29.37
2019-04-21T13:18:18.456Z,29.49
2019-04-21T13:21:32.101Z,29.63
2019-04-21T13:24:45.584Z,30.11
2019-04-21T13:27:59.226Z,30.30
2019-04-21T13:31:14.054Z,30.56
2019-04-21T13:34:28.344Z,30.66
2019-04-21T13:37:43.365Z,30.50
2019-04-21T13:41:36.693Z,30.54
2019-04-21T13:44:39.147Z,30.87
2019-04-21T13:47:52.822Z,30.11
2019-04-21T13:51:07.130Z,29.79
2019-04-21T13:54:21.927Z,30.13
2019-04-21T13:57:36.560Z,30.07
2019-04-21T14:00:51.075Z,30.08
2019-04-21T14:04:07.243Z,30.26
2019-04-21T14:07:20.958Z,30.11
2019-04-21T14:10:35.586Z,30.03
2019-04-21T14:13:50.397Z,30.59
2019-04-21T14:17:05.548Z,30.92
2019-04-21T14:20:21.483Z,31.27
2019-04-21T14:23:40.586Z,31.40
2019-04-21T14:26:52.211Z,31.64
2019-04-21T14:30:08.350Z,32.04
2019-04-21T14:33:23.519Z,32.10
2019-04-21T14:36:38.875Z,31.06
2019-04-21T14:39:59.900Z,31.16
2019-04-21T14:43:08.149Z,31.24
2019-04-21T14:46:35.733Z,31.41
2019-04-21T14:50:17.983Z,32.11
2019-04-21T14:53:45.594Z,31.64
2019-04-21T14:57:00.825Z,31.34
2019-04-21T15:00:15.534Z,31.32
2019-04-21T15:03:29.985Z,31.28
2019-04-21T15:06:45.299Z,30.81
2019-04-21T15:10:07.907Z,30.89
2019-04-21T15:13:14.776Z,30.91
2019-04-21T15:16:29.074Z,30.58
2019-04-21T15:19:49.610Z,30.19
2019-04-21T15:22:59.987Z,30.39
2019-04-21T15:26:14.352Z,30.35
2019-04-21T15:29:28.939Z,30.31
2019-04-21T15:32:42.747Z,29.76
2019-04-21T15:35:57.470Z,29.71
2019-04-21T15:39:11.902Z,29.58
2019-04-21T15:42:26.354Z,29.11
2019-04-21T15:45:39.911Z,28.65
2019-04-21T15:48:55.041Z,28.77
2019-04-21T15:52:09.767Z,28.76
2019-04-21T15:55:55.102Z,28.64
2019-04-21T15:59:34.547Z,28.59
2019-04-21T16:02:48.631Z,28.81
2019-04-21T16:06:03.329Z,28.97
2019-04-21T16:09:21.423Z,28.72
2019-04-21T16:12:33.909Z,28.63
2019-04-21T16:15:48.459Z,28.50
2019-04-21T16:19:02.258Z,28.30
2019-04-21T16:22:16.769Z,27.93
2019-04-21T16:25:30.646Z,27.87
2019-04-21T16:28:44.941Z,27.60
2019-04-21T16:31:59.676Z,27.61
2019-04-21T16:35:14.977Z,27.72
2019-04-21T16:38:29.520Z,27.72
2019-04-21T16:41:44.538Z,27.53
2019-04-21T16:44:58.896Z,27.53
2019-04-21T16:48:12.969Z,27.36
2019-04-21T16:51:28.373Z,27.27
2019-04-21T16:54:44.116Z,27.39
2019-04-21T16:58:23.115Z,27.39
2019-04-21T17:01:34.199Z,27.43
2019-04-21T17:04:48.583Z,27.43
2019-04-21T17:08:02.277Z,27.00
2019-04-21T17:11:21.611Z,26.86
2019-04-21T17:14:51.272Z,26.58
2019-04-21T17:18:06.163Z,26.49
2019-04-21T17:21:03.737Z,26.24
2019-04-21T17:24:18.211Z,25.97
2019-04-21T17:27:33.377Z,25.66
2019-04-21T17:30:48.459Z,25.24
2019-04-21T17:34:10.270Z,24.95
2019-04-21T17:37:21.163Z,24.55
2019-04-21T17:40:33.921Z,24.08
2019-04-21T17:43:47.873Z,23.63
2019-04-21T17:47:05.674Z,23.36
2019-04-21T17:50:29.371Z,23.06
2019-04-21T17:53:53.784Z,22.69
2019-04-21T17:57:26.645Z,22.29
2019-04-21T18:01:05.537Z,21.87
2019-04-21T18:04:03.625Z,21.56
2019-04-21T18:07:17.247Z,21.04
2019-04-21T18:10:37.489Z,20.47
2019-04-21T18:13:34.653Z,20.19
2019-04-21T18:16:50.248Z,19.90
2019-04-21T18:20:06.014Z,19.66
2019-04-21T18:23:52.071Z,19.44
2019-04-21T18:27:03.569Z,19.18
2019-04-21T18:30:58.374Z,18.85
2019-04-21T18:34:33.878Z,18.58
2019-04-21T18:38:04.467Z,18.29
2019-04-21T18:41:09.960Z,18.06
2019-04-21T18:45:22.671Z,17.89
2019-04-21T18:48:27.378Z,17.72
2019-04-21T18:51:59.658Z,17.49
2019-04-21T18:55:18.011Z,17.24
2019-04-21T18:58:24.179Z,16.93
2019-04-21T19:01:39.990Z,16.68
2019-04-21T19:04:59.937Z,16.41
2019-04-21T19:08:25.458Z,16.12
2019-04-21T19:11:43.344Z,15.84
2019-04-21T19:14:56.276Z,15.69
2019-04-21T19:18:34.024Z,15.41
2019-04-21T19:21:24.501Z,15.15
2019-04-21T19:24:48.567Z,14.85
2019-04-21T19:27:59.020Z,14.59
2019-04-21T19:31:28.287Z,14.31
2019-04-21T19:34:22.485Z,14.12
2019-04-21T19:37:38.956Z,13.85
2019-04-21T19:40:56.530Z,13.67
2019-04-21T19:44:20.537Z,13.41
2019-04-21T19:47:43.325Z,13.36
2019-04-21T19:50:50.259Z,13.33
2019-04-21T19:53:56.124Z,13.05
2019-04-21T19:57:04.809Z,12.85
2019-04-21T20:00:19.284Z,12.73
2019-04-21T20:03:34.639Z,12.68
2019-04-21T20:07:01.046Z,12.64
2019-04-21T20:10:26.952Z,12.52
2019-04-21T20:13:59.790Z,12.30
2019-04-21T20:16:50.334Z,12.16
2019-04-21T20:19:52.052Z,11.94
2019-04-21T20:23:13.136Z,11.90
2019-04-21T20:26:33.122Z,11.77
2019-04-21T20:29:57.896Z,11.55
2019-04-21T20:33:38.205Z,11.41
2019-04-21T20:36:26.187Z,11.32
2019-04-21T20:39:29.408Z,11.19
2019-04-21T20:42:52.412Z,10.94
2019-04-21T20:46:12.358Z,10.87
2019-04-21T20:49:23.085Z,10.73
2019-04-21T20:52:47.673Z,10.57
2019-04-21T20:55:52.796Z,10.60
2019-04-21T20:59:12.161Z,10.48
2019-04-21T21:02:26.535Z,10.34
2019-04-21T21:05:42.581Z,10.26
2019-04-21T21:09:01.445Z,10.22
2019-04-21T21:12:33.760Z,10.17
2019-04-21T21:16:53.388Z,9.99
2019-04-21T21:20:08.922Z,9.82
2019-04-21T21:23:12.834Z,9.71
2019-04-21T21:26:38.139Z,9.64
2019-04-21T21:29:50.218Z,9.66
2019-04-21T21:33:11.429Z,9.56
2019-04-21T21:36:19.239Z,9.51
2019-04-21T21:39:48.786Z,9.36
2019-04-21T21:42:40.046Z,9.33
2019-04-21T21:45:55.623Z,9.26
2019-04-21T21:49:23.711Z,9.24
2019-04-21T21:52:36.678Z,9.13
2019-04-21T21:55:38.581Z,9.05
2019-04-21T21:58:53.878Z,8.98
2019-04-21T22:02:09.467Z,8.84
2019-04-21T22:05:27.299Z,8.74
2019-04-21T22:08:40.564Z,8.73
2019-04-21T22:11:57.848Z,8.62
2019-04-21T22:15:17.345Z,8.52
2019-04-21T22:18:39.525Z,8.45
2019-04-21T22:21:59.519Z,8.43
2019-04-21T22:25:09.082Z,8.35
2019-04-21T22:28:13.473Z,8.34
2019-04-21T22:31:31.874Z,8.38
2019-04-21T22:34:50.244Z,8.37
2019-04-21T22:38:15.213Z,8.38
2019-04-21T22:41:24.222Z,8.25
2019-04-21T22:44:30.202Z,8.13
2019-04-21T22:47:45.147Z,8.14
2019-04-21T22:51:00.581Z,8.18
2019-04-21T22:54:20.810Z,8.22
2019-04-21T22:57:37.824Z,8.14
2019-04-21T23:00:53.040Z,7.99
2019-04-21T23:04:02.931Z,7.82
2019-04-21T23:07:19.384Z,7.76
2019-04-21T23:10:32.295Z,7.65
2019-04-21T23:13:55.324Z,7.55
2019-04-21T23:17:24.099Z,7.45
2019-04-21T23:20:39.391Z,7.54
2019-04-21T23:23:51.658Z,7.53
2019-04-21T23:27:02.654Z,7.49
2019-04-21T23:30:34.193Z,7.42
2019-04-21T23:33:22.025Z,7.38
2019-04-21T23:36:43.503Z,7.27
2019-04-21T23:39:59.727Z,7.30
2019-04-21T23:43:13.410Z,7.22
2019-04-21T23:46:28.228Z,7.16
2019-04-21T23:49:47.117Z,7.04
2019-04-21T23:52:55.424Z,6.93
2019-04-21T23:56:14.723Z,6.92
2019-04-21T23:59:26.705Z,6.83
